Time;durP1;ratioP1;P1;durP2;ratioP2;P2;SDS_P1;SDS_P2;PMS_P1;PMS_P2;Temp;Humidity;BMP_temperature;BMP_pressure;BME280_temperature;BME280_humidity;BME280_pressure;Samples;Min_cycle;Max_cycle;Signal;HPM_P1;HPM_P2
2024/04/15 00:00:41;;;;;;;8.98;3.03;;;;;;;;;;2240981;26;20080;-73
2024/04/15 00:01:43;;;;;;;6.72;2.70;;;;;;;;;;2240787;26;20014;-70
2024/04/15 00:02:44;;;;;;;9.52;2.72;;;;;;;;;;2240872;26;20003;-69
2024/04/15 00:03:46;;;;;;;9.98;3.10;;;;;;;;;;2239946;26;20337;-71
2024/04/15 00:04:47;;;;;;;8.65;2.65;;;;;;;;;;2238710;26;20003;-71
2024/04/15 00:05:48;;;;;;;8.30;2.63;;;;;;;;;;2240902;26;20301;-72
2024/04/15 00:06:50;;;;;;;7.05;2.40;;;;;;;;;;2240861;26;20010;-71
2024/04/15 00:07:51;;;;;;;7.38;2.55;;;;;;;;;;2240728;26;20111;-70
2024/04/15 00:08:53;;;;;;;6.97;2.50;;;;;;;;;;2240959;26;20024;-71
2024/04/15 00:09:54;;;;;;;5.13;2.30;;;;;;;;;;2241052;26;20393;-70
2024/04/15 00:10:56;;;;;;;8.68;3.22;;;;;;;;;;2240834;26;20042;-69
2024/04/15 00:11:57;;;;;;;7.10;2.45;;;;;;;;;;2238479;26;20088;-70
2024/04/15 00:12:58;;;;;;;7.20;2.15;;;;;;;;;;2240662;26;20004;-69
2024/04/15 00:14:00;;;;;;;6.72;2.42;;;;;;;;;;2239973;26;20379;-71
2024/04/15 00:15:01;;;;;;;8.15;2.53;;;;;;;;;;2240035;26;20400;-71
2024/04/15 00:16:03;;;;;;;6.78;2.45;;;;;;;;;;2239716;26;20019;-71
2024/04/15 00:17:04;;;;;;;6.43;2.30;;;;;;;;;;2240015;26;20000;-71
2024/04/15 00:18:06;;;;;;;9.05;2.85;;;;;;;;;;2240655;26;20006;-70
2024/04/15 00:19:07;;;;;;;7.30;2.95;;;;;;;;;;2238530;26;20007;-71
2024/04/15 00:20:08;;;;;;;8.60;2.60;;;;;;;;;;2240802;26;20073;-72
2024/04/15 00:21:10;;;;;;;8.18;2.30;;;;;;;;;;2240926;26;20375;-72
2024/04/15 00:22:11;;;;;;;8.18;2.45;;;;;;;;;;2240949;26;19999;-71
2024/04/15 00:23:13;;;;;;;9.70;2.88;;;;;;;;;;2240786;26;20458;-72
2024/04/15 00:24:14;;;;;;;6.90;2.17;;;;;;;;;;2240780;26;19996;-71
2024/04/15 00:25:16;;;;;;;6.13;2.28;;;;;;;;;;2240909;26;20010;-71
2024/04/15 00:26:17;;;;;;;8.45;2.67;;;;;;;;;;2238639;26;20000;-71
2024/04/15 00:27:19;;;;;;;12.23;2.80;;;;;;;;;;2240720;26;20009;-71
2024/04/15 00:28:20;;;;;;;6.95;2.45;;;;;;;;;;2240908;26;20343;-71
2024/04/15 00:29:22;;;;;;;6.78;2.72;;;;;;;;;;2240786;26;20004;-72
2024/04/15 00:30:24;;;;;;;8.30;2.67;;;;;;;;;;2240678;26;20451;-70
2024/04/15 00:31:25;;;;;;;6.30;2.80;;;;;;;;;;2240841;26;20075;-71
2024/04/15 00:32:26;;;;;;;5.93;2.40;;;;;;;;;;2238275;26;20007;-71
2024/04/15 00:33:28;;;;;;;4.88;2.45;;;;;;;;;;2242145;26;20009;-70
2024/04/15 00:34:29;;;;;;;9.35;2.63;;;;;;;;;;2240650;26;20007;-69
2024/04/15 00:35:31;;;;;;;6.78;2.55;;;;;;;;;;2239157;26;19999;-71
2024/04/15 00:36:32;;;;;;;10.38;2.42;;;;;;;;;;2239793;26;20072;-70
2024/04/15 00:37:33;;;;;;;5.53;2.42;;;;;;;;;;2240448;26;20004;-71
2024/04/15 00:38:35;;;;;;;10.23;2.80;;;;;;;;;;2240656;26;20011;-71
2024/04/15 00:39:36;;;;;;;8.93;2.78;;;;;;;;;;2240554;26;20022;-71
2024/04/15 00:40:37;;;;;;;8.98;2.88;;;;;;;;;;2238772;26;19999;-71
2024/04/15 00:41:39;;;;;;;7.55;2.78;;;;;;;;;;2240698;26;19999;-72
2024/04/15 00:42:40;;;;;;;5.70;2.38;;;;;;;;;;2240682;26;20030;-71
2024/04/15 00:43:41;;;;;;;6.20;2.30;;;;;;;;;;2240758;26;20098;-72
2024/04/15 00:44:43;;;;;;;8.43;2.60;;;;;;;;;;2240797;26;20455;-72
2024/04/15 00:45:44;;;;;;;6.32;2.50;;;;;;;;;;2240230;26;20011;-72
2024/04/15 00:46:45;;;;;;;8.15;2.22;;;;;;;;;;2240654;26;20031;-72
2024/04/15 00:47:47;;;;;;;10.52;2.75;;;;;;;;;;2231572;26;20010;-72
2024/04/15 00:48:48;;;;;;;5.40;2.67;;;;;;;;;;2240538;26;20004;-71
2024/04/15 00:49:51;;;;;;;8.38;2.75;;;;;;;;;;2240480;26;20108;-72
2024/04/15 00:50:52;;;;;;;6.68;2.80;;;;;;;;;;2238350;26;20061;-72
2024/04/15 00:51:54;;;;;;;12.63;2.90;;;;;;;;;;2240922;26;20010;-72
2024/04/15 00:52:56;;;;;;;12.00;2.92;;;;;;;;;;2240544;26;19999;-74
2024/04/15 00:53:58;;;;;;;12.02;2.75;;;;;;;;;;2240565;26;20080;-72
2024/04/15 00:54:59;;;;;;;4.88;2.35;;;;;;;;;;2240554;26;20000;-71
2024/04/15 00:56:02;;;;;;;12.05;3.05;;;;;;;;;;2240522;26;20080;-71
2024/04/15 00:57:04;;;;;;;5.88;2.50;;;;;;;;;;2238578;26;20010;-71
2024/04/15 00:58:05;;;;;;;7.88;2.45;;;;;;;;;;2239869;26;20007;-71
2024/04/15 00:59:07;;;;;;;6.13;2.30;;;;;;;;;;2240662;26;20011;-71
2024/04/15 01:00:09;;;;;;;7.53;3.10;;;;;;;;;;2240593;26;20015;-71
2024/04/15 01:01:10;;;;;;;6.00;2.47;;;;;;;;;;2240583;26;20010;-71
2024/04/15 01:02:12;;;;;;;7.40;2.83;;;;;;;;;;2240476;26;20069;-71
2024/04/15 01:03:15;;;;;;;6.75;2.47;;;;;;;;;;2238441;26;19995;-72
2024/04/15 01:04:16;;;;;;;7.03;2.60;;;;;;;;;;2240549;26;20008;-72
2024/04/15 01:05:17;;;;;;;7.28;3.33;;;;;;;;;;2240597;26;20077;-72
2024/04/15 01:06:19;;;;;;;7.60;2.95;;;;;;;;;;2240424;26;20014;-72
2024/04/15 01:07:21;;;;;;;10.25;2.88;;;;;;;;;;2240476;26;20464;-71
2024/04/15 01:08:22;;;;;;;8.60;2.47;;;;;;;;;;2240741;26;21566;-70
2024/04/15 01:09:25;;;;;;;6.85;3.20;;;;;;;;;;2238733;26;20386;-71
2024/04/15 01:10:27;;;;;;;7.60;2.80;;;;;;;;;;2240484;26;20017;-71
2024/04/15 01:11:28;;;;;;;9.15;3.08;;;;;;;;;;2240359;26;19999;-71
2024/04/15 01:12:31;;;;;;;9.43;2.90;;;;;;;;;;2240511;26;20031;-71
2024/04/15 01:13:32;;;;;;;7.18;2.88;;;;;;;;;;2240364;26;20010;-72
2024/04/15 01:14:34;;;;;;;9.38;2.92;;;;;;;;;;2240629;26;20003;-72
2024/04/15 01:15:35;;;;;;;8.52;2.95;;;;;;;;;;2239654;26;20003;-72
2024/04/15 01:16:36;;;;;;;7.65;2.70;;;;;;;;;;2239749;26;20015;-72
2024/04/15 01:17:38;;;;;;;9.25;3.28;;;;;;;;;;2240466;26;20019;-72
2024/04/15 01:18:39;;;;;;;5.43;2.72;;;;;;;;;;2240358;26;20018;-72
2024/04/15 01:19:40;;;;;;;10.15;2.90;;;;;;;;;;2239400;26;20010;-72
2024/04/15 01:20:42;;;;;;;8.95;2.78;;;;;;;;;;2239687;26;20000;-72
2024/04/15 01:21:45;;;;;;;9.10;3.00;;;;;;;;;;2238541;26;20460;-73
2024/04/15 01:22:55;;;;;;;7.90;2.38;;;;;;;;;;2239287;26;20018;-72
2024/04/15 01:23:57;;;;;;;9.10;2.60;;;;;;;;;;2238121;26;20003;-72
2024/04/15 01:25:01;;;;;;;6.57;3.15;;;;;;;;;;2239693;26;20003;-72
2024/04/15 01:26:02;;;;;;;6.13;2.92;;;;;;;;;;2240655;26;20010;-72
2024/04/15 01:27:03;;;;;;;7.95;2.33;;;;;;;;;;2238331;26;20344;-72
2024/04/15 01:28:06;;;;;;;7.20;2.45;;;;;;;;;;2240416;26;20011;-70
2024/04/15 01:29:07;;;;;;;10.25;2.80;;;;;;;;;;2240427;26;20000;-73
2024/04/15 01:30:09;;;;;;;4.28;2.20;;;;;;;;;;2240379;26;19999;-73
2024/04/15 01:31:12;;;;;;;5.82;2.97;;;;;;;;;;2240438;26;20018;-71
2024/04/15 01:32:13;;;;;;;8.57;2.83;;;;;;;;;;2238101;26;20023;-71
2024/04/15 01:33:14;;;;;;;8.25;3.25;;;;;;;;;;2242453;26;19999;-72
2024/04/15 01:34:16;;;;;;;6.38;2.35;;;;;;;;;;2240352;26;20459;-71
2024/04/15 01:35:19;;;;;;;6.45;2.40;;;;;;;;;;2240525;26;20000;-70
2024/04/15 01:36:20;;;;;;;8.45;3.00;;;;;;;;;;2240423;26;20010;-73
2024/04/15 01:37:22;;;;;;;6.97;2.45;;;;;;;;;;2239457;26;21431;-72
2024/04/15 01:38:23;;;;;;;5.50;2.40;;;;;;;;;;2239319;26;19999;-71
2024/04/15 01:39:26;;;;;;;5.03;2.40;;;;;;;;;;2240423;26;20003;-71
2024/04/15 01:40:28;;;;;;;9.43;2.58;;;;;;;;;;2240328;26;19996;-71
2024/04/15 01:41:30;;;;;;;8.05;3.22;;;;;;;;;;2240292;26;20458;-72
2024/04/15 01:42:31;;;;;;;6.43;2.40;;;;;;;;;;2240387;26;19995;-71
2024/04/15 01:43:34;;;;;;;5.82;2.78;;;;;;;;;;2238390;26;20457;-72
2024/04/15 01:44:35;;;;;;;6.57;2.67;;;;;;;;;;2240425;26;20003;-74
2024/04/15 01:45:36;;;;;;;6.63;2.60;;;;;;;;;;2239933;26;20052;-73
2024/04/15 01:46:39;;;;;;;9.07;2.47;;;;;;;;;;2240094;26;19999;-72
2024/04/15 01:47:44;;;;;;;8.10;2.70;;;;;;;;;;2240041;26;20350;-72
2024/04/15 01:48:45;;;;;;;7.25;2.75;;;;;;;;;;2238328;26;20076;-71
2024/04/15 01:49:48;;;;;;;7.78;3.08;;;;;;;;;;2240257;26;20000;-71
2024/04/15 01:50:49;;;;;;;6.88;2.47;;;;;;;;;;2240365;26;20007;-70
2024/04/15 01:51:51;;;;;;;7.45;2.38;;;;;;;;;;2240026;26;20014;-70
2024/04/15 01:52:52;;;;;;;7.35;2.80;;;;;;;;;;2237814;26;20003;-70
2024/04/15 01:53:53;;;;;;;5.05;2.63;;;;;;;;;;2240147;26;20007;-70
2024/04/15 01:54:55;;;;;;;7.30;2.72;;;;;;;;;;2240203;26;20023;-72
2024/04/15 01:55:57;;;;;;;6.38;2.50;;;;;;;;;;2240103;26;19999;-71
2024/04/15 01:56:59;;;;;;;5.05;2.38;;;;;;;;;;2240025;26;20448;-70
2024/04/15 01:58:00;;;;;;;8.73;2.67;;;;;;;;;;2240085;26;20015;-71
2024/04/15 01:59:01;;;;;;;7.63;2.58;;;;;;;;;;2240321;26;20006;-71
2024/04/15 02:00:07;;;;;;;6.30;2.58;;;;;;;;;;2237957;26;20015;-74
2024/04/15 02:01:08;;;;;;;7.43;2.85;;;;;;;;;;2240136;26;20068;-72
2024/04/15 02:02:09;;;;;;;10.50;2.63;;;;;;;;;;2240246;26;20014;-70
2024/04/15 02:03:11;;;;;;;5.30;2.20;;;;;;;;;;2240069;26;20064;-70
2024/04/15 02:04:12;;;;;;;5.10;2.05;;;;;;;;;;2240244;26;20000;-70
2024/04/15 02:05:13;;;;;;;4.13;2.28;;;;;;;;;;2238086;26;20003;-71
2024/04/15 02:06:15;;;;;;;5.25;2.28;;;;;;;;;;2239951;26;20073;-72
2024/04/15 02:07:16;;;;;;;7.85;2.38;;;;;;;;;;2238588;26;20329;-72
2024/04/15 02:08:17;;;;;;;5.05;1.88;;;;;;;;;;2239317;26;19999;-72
2024/04/15 02:09:19;;;;;;;7.32;2.05;;;;;;;;;;2239943;26;19999;-72
2024/04/15 02:10:20;;;;;;;4.65;2.30;;;;;;;;;;2240339;26;20000;-72
2024/04/15 02:11:22;;;;;;;6.68;2.03;;;;;;;;;;2241260;26;19999;-71
2024/04/15 02:12:23;;;;;;;6.00;2.17;;;;;;;;;;2239250;26;20090;-72
2024/04/15 02:13:24;;;;;;;5.32;2.03;;;;;;;;;;2241402;26;20010;-72
2024/04/15 02:14:26;;;;;;;6.03;2.08;;;;;;;;;;2241610;26;20097;-72
2024/04/15 02:15:27;;;;;;;7.28;2.40;;;;;;;;;;2241570;26;20009;-72
2024/04/15 02:16:28;;;;;;;8.15;2.33;;;;;;;;;;2241536;26;20000;-72
2024/04/15 02:17:30;;;;;;;4.15;2.42;;;;;;;;;;2241391;26;20425;-72
2024/04/15 02:18:31;;;;;;;6.65;1.98;;;;;;;;;;2241292;26;20000;-72
2024/04/15 02:19:33;;;;;;;8.05;2.17;;;;;;;;;;2239226;26;20036;-73
2024/04/15 02:20:34;;;;;;;7.47;2.22;;;;;;;;;;2241690;26;20436;-72
2024/04/15 02:21:35;;;;;;;8.50;2.50;;;;;;;;;;2241538;26;20011;-72
2024/04/15 02:22:37;;;;;;;10.18;2.05;;;;;;;;;;2240533;26;20004;-72
2024/04/15 02:23:38;;;;;;;5.32;1.75;;;;;;;;;;2240674;26;20456;-71
2024/04/15 02:24:39;;;;;;;7.55;2.45;;;;;;;;;;2241485;26;20015;-72
2024/04/15 02:25:42;;;;;;;4.80;2.10;;;;;;;;;;2241615;26;20007;-71
2024/04/15 02:26:44;;;;;;;5.88;1.70;;;;;;;;;;2239314;26;20455;-71
2024/04/15 02:27:45;;;;;;;6.22;2.00;;;;;;;;;;2240548;26;20029;-71
2024/04/15 02:28:46;;;;;;;5.65;1.85;;;;;;;;;;2240814;26;20089;-71
2024/04/15 02:29:48;;;;;;;7.32;2.28;;;;;;;;;;2241541;26;20031;-71
2024/04/15 02:30:49;;;;;;;4.80;2.25;;;;;;;;;;2241503;26;20110;-71
2024/04/15 02:31:51;;;;;;;8.18;2.35;;;;;;;;;;2241639;26;20011;-72
2024/04/15 02:32:52;;;;;;;3.17;2.08;;;;;;;;;;2241329;26;21625;-71
2024/04/15 02:33:53;;;;;;;5.30;2.05;;;;;;;;;;2241234;26;19996;-71
2024/04/15 02:34:56;;;;;;;10.77;2.80;;;;;;;;;;2243817;26;20047;-71
2024/04/15 02:35:57;;;;;;;6.70;2.80;;;;;;;;;;2241686;26;20440;-70
2024/04/15 02:36:58;;;;;;;7.90;2.47;;;;;;;;;;2241398;26;20097;-70
2024/04/15 02:38:00;;;;;;;4.10;1.92;;;;;;;;;;2241077;26;20030;-70
2024/04/15 02:39:01;;;;;;;6.32;2.05;;;;;;;;;;2241474;26;20011;-70
2024/04/15 02:40:03;;;;;;;6.30;2.30;;;;;;;;;;2238859;26;20007;-71
2024/04/15 02:41:04;;;;;;;6.35;2.47;;;;;;;;;;2241365;26;20050;-70
2024/04/15 02:42:06;;;;;;;8.15;2.80;;;;;;;;;;2241460;26;19995;-71
2024/04/15 02:43:08;;;;;;;6.60;2.00;;;;;;;;;;2241171;26;20371;-71
2024/04/15 02:44:09;;;;;;;10.82;2.40;;;;;;;;;;2241209;26;20078;-71
2024/04/15 02:45:11;;;;;;;4.80;2.15;;;;;;;;;;2241018;26;20053;-70
2024/04/15 02:46:12;;;;;;;5.88;2.50;;;;;;;;;;2241098;26;20011;-70
2024/04/15 02:47:14;;;;;;;8.50;2.40;;;;;;;;;;2239339;26;20003;-71
2024/04/15 02:48:18;;;;;;;5.78;2.53;;;;;;;;;;2241327;26;20006;-71
2024/04/15 02:49:19;;;;;;;7.07;2.50;;;;;;;;;;2241010;26;19996;-70
2024/04/15 02:50:21;;;;;;;8.50;2.40;;;;;;;;;;2241362;26;20079;-70
2024/04/15 02:51:22;;;;;;;7.32;2.60;;;;;;;;;;2238985;26;20405;-71
2024/04/15 02:52:24;;;;;;;6.13;2.78;;;;;;;;;;2241475;26;20018;-70
2024/04/15 02:53:25;;;;;;;6.50;2.53;;;;;;;;;;2241315;26;19996;-71
2024/04/15 02:54:26;;;;;;;8.85;2.60;;;;;;;;;;2241237;26;20003;-71
2024/04/15 02:55:28;;;;;;;7.28;2.55;;;;;;;;;;2241332;26;19995;-70
2024/04/15 02:56:29;;;;;;;5.72;2.58;;;;;;;;;;2241245;26;20477;-70
2024/04/15 02:57:30;;;;;;;4.13;1.98;;;;;;;;;;2241330;26;20003;-68
2024/04/15 02:58:32;;;;;;;4.80;2.15;;;;;;;;;;2241367;26;20003;-70
2024/04/15 02:59:33;;;;;;;5.53;2.47;;;;;;;;;;2239238;26;20440;-70
2024/04/15 03:00:35;;;;;;;4.45;2.67;;;;;;;;;;2241322;26;20003;-69
2024/04/15 03:01:36;;;;;;;4.45;2.20;;;;;;;;;;2241322;26;19995;-70
2024/04/15 03:02:37;;;;;;;4.70;2.25;;;;;;;;;;2241441;26;20013;-71
2024/04/15 03:03:39;;;;;;;6.50;2.30;;;;;;;;;;2241187;26;20032;-69
2024/04/15 03:04:40;;;;;;;6.85;2.20;;;;;;;;;;2241193;26;20003;-70
2024/04/15 03:05:43;;;;;;;5.47;2.22;;;;;;;;;;2241325;26;20015;-70
2024/04/15 03:06:44;;;;;;;8.73;1.92;;;;;;;;;;2240986;26;19999;-70
2024/04/15 03:07:47;;;;;;;7.90;1.92;;;;;;;;;;2241162;26;20399;-70
2024/04/15 03:08:50;;;;;;;9.43;2.42;;;;;;;;;;2241193;26;20004;-70
2024/04/15 03:09:54;;;;;;;4.60;2.10;;;;;;;;;;2241139;26;19995;-70
2024/04/15 03:10:55;;;;;;;5.82;2.35;;;;;;;;;;2239362;26;20003;-72
2024/04/15 03:11:57;;;;;;;5.70;2.00;;;;;;;;;;2241368;26;20012;-70
2024/04/15 03:12:58;;;;;;;7.72;2.08;;;;;;;;;;2241293;26;19999;-71
2024/04/15 03:14:00;;;;;;;5.00;2.40;;;;;;;;;;2241161;26;20031;-71
2024/04/15 03:15:02;;;;;;;5.95;2.20;;;;;;;;;;2241182;26;20007;-71
2024/04/15 03:16:03;;;;;;;7.93;2.45;;;;;;;;;;2238472;26;20003;-70
2024/04/15 03:17:05;;;;;;;6.63;2.40;;;;;;;;;;2240104;26;20013;-70
2024/04/15 03:18:06;;;;;;;4.85;2.03;;;;;;;;;;2241044;26;20340;-71
2024/04/15 03:19:08;;;;;;;5.72;2.45;;;;;;;;;;2240919;26;20102;-70
2024/04/15 03:20:10;;;;;;;5.30;2.00;;;;;;;;;;2241607;26;20003;-70
2024/04/15 03:21:11;;;;;;;7.38;2.38;;;;;;;;;;2240743;26;20338;-70
2024/04/15 03:22:12;;;;;;;7.93;2.40;;;;;;;;;;2238882;26;20007;-70
2024/04/15 03:23:14;;;;;;;4.07;2.25;;;;;;;;;;2241243;26;20119;-70
2024/04/15 03:24:15;;;;;;;4.30;2.40;;;;;;;;;;2241108;26;20076;-70
2024/04/15 03:25:17;;;;;;;8.55;2.15;;;;;;;;;;2240050;26;20040;-71
2024/04/15 03:26:18;;;;;;;8.52;2.35;;;;;;;;;;2240292;26;20011;-72
2024/04/15 03:27:20;;;;;;;6.10;2.28;;;;;;;;;;2241156;26;20764;-71
2024/04/15 03:28:21;;;;;;;5.40;2.58;;;;;;;;;;2241188;26;20374;-71
2024/04/15 03:29:23;;;;;;;7.03;2.08;;;;;;;;;;2238642;26;20017;-71
2024/04/15 03:30:24;;;;;;;7.32;2.67;;;;;;;;;;2241228;26;20361;-72
2024/04/15 03:31:26;;;;;;;6.22;1.90;;;;;;;;;;2241176;26;20011;-71
2024/04/15 03:32:27;;;;;;;7.70;2.38;;;;;;;;;;2241210;26;20000;-72
2024/04/15 03:33:28;;;;;;;8.85;2.58;;;;;;;;;;2240745;26;19999;-71
2024/04/15 03:34:30;;;;;;;6.25;2.25;;;;;;;;;;2240721;26;20336;-71
2024/04/15 03:35:31;;;;;;;7.10;2.22;;;;;;;;;;2241033;26;20348;-71
2024/04/15 03:36:33;;;;;;;3.40;1.98;;;;;;;;;;2238829;26;20018;-71
2024/04/15 03:37:34;;;;;;;6.60;2.28;;;;;;;;;;2240925;26;20045;-71
2024/04/15 03:38:36;;;;;;;5.55;2.22;;;;;;;;;;2240992;26;20432;-70
2024/04/15 03:39:37;;;;;;;4.63;2.20;;;;;;;;;;2241173;26;20010;-71
2024/04/15 03:40:39;;;;;;;11.10;2.47;;;;;;;;;;2241136;26;20004;-71
2024/04/15 03:41:40;;;;;;;9.93;2.38;;;;;;;;;;2240983;26;19999;-71
2024/04/15 03:42:42;;;;;;;5.70;2.20;;;;;;;;;;2240802;26;19996;-71
2024/04/15 03:43:43;;;;;;;7.35;2.25;;;;;;;;;;2238798;26;20019;-71
2024/04/15 03:44:44;;;;;;;8.18;2.50;;;;;;;;;;2241092;26;20027;-70
2024/04/15 03:45:46;;;;;;;9.45;2.28;;;;;;;;;;2240648;26;19999;-70
2024/04/15 03:46:47;;;;;;;5.15;2.70;;;;;;;;;;2240959;26;20006;-71
2024/04/15 03:47:48;;;;;;;7.13;2.45;;;;;;;;;;2240893;26;20000;-71
2024/04/15 03:48:50;;;;;;;6.03;2.45;;;;;;;;;;2241192;26;20040;-71
2024/04/15 03:49:51;;;;;;;8.30;3.20;;;;;;;;;;2240963;26;20015;-71
2024/04/15 03:50:52;;;;;;;6.28;2.42;;;;;;;;;;2238622;26;20014;-71
2024/04/15 03:51:54;;;;;;;7.68;2.50;;;;;;;;;;2240098;26;20015;-70
2024/04/15 03:52:55;;;;;;;7.20;2.50;;;;;;;;;;2240153;26;20010;-71
2024/04/15 03:53:56;;;;;;;6.93;2.60;;;;;;;;;;2240068;26;20532;-72
2024/04/15 03:54:58;;;;;;;8.35;2.42;;;;;;;;;;2240304;26;20003;-70
2024/04/15 03:56:00;;;;;;;5.70;1.90;;;;;;;;;;2240731;26;20003;-70
2024/04/15 03:57:02;;;;;;;4.50;2.22;;;;;;;;;;2240934;26;20074;-71
2024/04/15 03:58:03;;;;;;;5.18;2.05;;;;;;;;;;2238787;26;20076;-70
2024/04/15 03:59:05;;;;;;;4.78;2.50;;;;;;;;;;2240967;26;20078;-72
2024/04/15 04:00:06;;;;;;;5.13;2.28;;;;;;;;;;2240931;26;20451;-72
2024/04/15 04:01:08;;;;;;;7.13;2.13;;;;;;;;;;2240837;26;20471;-72
2024/04/15 04:02:09;;;;;;;6.93;2.15;;;;;;;;;;2240310;26;20014;-70
2024/04/15 04:03:11;;;;;;;5.82;1.95;;;;;;;;;;2241054;26;20404;-70
2024/04/15 04:04:15;;;;;;;5.70;2.08;;;;;;;;;;2238199;26;20003;-71
2024/04/15 04:05:16;;;;;;;5.13;2.20;;;;;;;;;;2239141;26;20010;-71
2024/04/15 04:06:18;;;;;;;5.60;2.15;;;;;;;;;;2240067;26;20509;-71
2024/04/15 04:07:21;;;;;;;6.30;2.53;;;;;;;;;;2240797;26;20015;-71
2024/04/15 04:08:22;;;;;;;9.07;2.63;;;;;;;;;;2240827;26;20015;-72
2024/04/15 04:09:23;;;;;;;5.55;2.55;;;;;;;;;;2238698;26;20007;-72
2024/04/15 04:10:25;;;;;;;4.72;2.30;;;;;;;;;;2241057;26;20011;-70
2024/04/15 04:11:27;;;;;;;8.45;2.65;;;;;;;;;;2240741;26;20011;-71
2024/04/15 04:12:28;;;;;;;8.20;2.33;;;;;;;;;;2240841;26;20000;-74
2024/04/15 04:13:29;;;;;;;8.95;2.47;;;;;;;;;;2240827;26;20462;-73
2024/04/15 04:14:31;;;;;;;7.90;2.63;;;;;;;;;;2240928;26;20080;-71
2024/04/15 04:15:36;;;;;;;7.78;2.42;;;;;;;;;;2239654;26;20013;-74
2024/04/15 04:16:38;;;;;;;5.28;2.42;;;;;;;;;;2238148;26;20328;-72
2024/04/15 04:17:39;;;;;;;6.88;2.35;;;;;;;;;;2240481;26;20133;-72
2024/04/15 04:18:40;;;;;;;5.90;2.20;;;;;;;;;;2239708;26;20337;-75
2024/04/15 04:19:46;;;;;;;6.15;2.78;;;;;;;;;;2239662;26;19996;-75
2024/04/15 04:20:47;;;;;;;9.52;2.28;;;;;;;;;;2239421;26;20007;-69
2024/04/15 04:21:48;;;;;;;6.22;2.58;;;;;;;;;;2240425;26;20015;-70
2024/04/15 04:22:50;;;;;;;5.43;2.20;;;;;;;;;;2240564;26;20030;-69
2024/04/15 04:23:51;;;;;;;7.35;2.15;;;;;;;;;;2240725;26;20049;-69
2024/04/15 04:24:53;;;;;;;4.32;2.25;;;;;;;;;;2238513;26;20343;-70
2024/04/15 04:25:54;;;;;;;7.07;2.40;;;;;;;;;;2240858;26;19999;-71
2024/04/15 04:26:56;;;;;;;6.55;2.53;;;;;;;;;;2240402;26;20455;-70
2024/04/15 04:27:57;;;;;;;3.53;1.95;;;;;;;;;;2240455;26;20004;-70
2024/04/15 04:28:59;;;;;;;4.43;2.03;;;;;;;;;;2240478;26;20002;-70
2024/04/15 04:30:00;;;;;;;5.05;2.45;;;;;;;;;;2240378;26;20091;-70
2024/04/15 04:31:02;;;;;;;4.75;2.20;;;;;;;;;;2240433;26;19999;-71
2024/04/15 04:32:04;;;;;;;3.65;1.98;;;;;;;;;;2240479;26;20137;-71
2024/04/15 04:33:05;;;;;;;4.72;2.25;;;;;;;;;;2239442;26;20010;-71
2024/04/15 04:34:06;;;;;;;3.17;2.00;;;;;;;;;;2239746;26;20353;-71
2024/04/15 04:35:08;;;;;;;5.13;2.42;;;;;;;;;;2239487;26;20015;-71
2024/04/15 04:36:09;;;;;;;6.22;2.30;;;;;;;;;;2240494;26;19996;-71
2024/04/15 04:37:12;;;;;;;9.60;2.58;;;;;;;;;;2240630;26;20072;-70
2024/04/15 04:38:14;;;;;;;6.25;2.60;;;;;;;;;;2238597;26;20007;-71
2024/04/15 04:39:15;;;;;;;6.15;2.97;;;;;;;;;;2240608;26;20436;-71
2024/04/15 04:40:16;;;;;;;8.57;2.40;;;;;;;;;;2240746;26;20424;-71
2024/04/15 04:41:18;;;;;;;12.55;2.70;;;;;;;;;;2240621;26;20450;-70
2024/04/15 04:42:20;;;;;;;9.52;2.25;;;;;;;;;;2239162;26;20004;-70
2024/04/15 04:43:21;;;;;;;7.53;2.40;;;;;;;;;;2239727;26;20069;-68
2024/04/15 04:44:23;;;;;;;6.40;2.13;;;;;;;;;;2238499;26;20011;-70
2024/04/15 04:45:25;;;;;;;6.50;2.40;;;;;;;;;;2240319;26;20072;-71
2024/04/15 04:46:27;;;;;;;8.90;2.83;;;;;;;;;;2240737;26;20325;-71
2024/04/15 04:47:28;;;;;;;6.50;2.30;;;;;;;;;;2240682;26;20008;-71
2024/04/15 04:48:29;;;;;;;6.90;2.47;;;;;;;;;;2240557;26;20003;-71
2024/04/15 04:49:31;;;;;;;11.82;2.88;;;;;;;;;;2240441;26;19999;-71
2024/04/15 04:50:33;;;;;;;5.85;2.60;;;;;;;;;;2237412;26;20012;-69
2024/04/15 04:51:34;;;;;;;5.65;2.45;;;;;;;;;;2238364;26;19991;-71
2024/04/15 04:52:35;;;;;;;9.35;3.15;;;;;;;;;;2241188;26;20011;-71
2024/04/15 04:53:37;;;;;;;5.00;2.45;;;;;;;;;;2241182;26;20090;-72
2024/04/15 04:54:39;;;;;;;9.85;2.60;;;;;;;;;;2241088;26;19995;-70
2024/04/15 04:55:40;;;;;;;6.30;2.80;;;;;;;;;;2240755;26;20036;-71
2024/04/15 04:56:42;;;;;;;3.42;2.33;;;;;;;;;;2240369;26;20477;-71
2024/04/15 04:57:43;;;;;;;8.40;2.70;;;;;;;;;;2238322;26;20027;-70
2024/04/15 04:58:44;;;;;;;8.15;2.97;;;;;;;;;;2240713;26;20102;-70
2024/04/15 04:59:46;;;;;;;8.82;2.97;;;;;;;;;;2240608;26;20429;-71
2024/04/15 05:00:47;;;;;;;7.45;2.67;;;;;;;;;;2240561;26;20072;-70
2024/04/15 05:01:48;;;;;;;8.63;2.80;;;;;;;;;;2240577;26;20027;-72
2024/04/15 05:02:51;;;;;;;5.72;2.60;;;;;;;;;;2238870;26;20317;-63
2024/04/15 05:03:52;;;;;;;7.47;2.35;;;;;;;;;;2234100;26;20047;-64
2024/04/15 05:04:54;;;;;;;7.40;2.53;;;;;;;;;;2236877;26;20026;-63
2024/04/15 05:05:55;;;;;;;7.78;2.60;;;;;;;;;;2233433;26;20032;-62
2024/04/15 05:06:56;;;;;;;6.82;2.90;;;;;;;;;;2239075;26;20000;-64
2024/04/15 05:07:58;;;;;;;7.75;2.30;;;;;;;;;;2236705;26;20076;-60
2024/04/15 05:08:59;;;;;;;9.07;3.03;;;;;;;;;;2237356;26;20480;-63
2024/04/15 05:10:00;;;;;;;7.93;3.05;;;;;;;;;;2237827;26;20048;-63
2024/04/15 05:11:02;;;;;;;9.32;2.65;;;;;;;;;;2237777;26;20011;-65
2024/04/15 05:12:04;;;;;;;4.57;2.40;;;;;;;;;;2235490;26;20468;-61
2024/04/15 05:13:05;;;;;;;8.10;2.65;;;;;;;;;;2236883;26;20095;-62
2024/04/15 05:14:06;;;;;;;10.25;2.67;;;;;;;;;;2237289;26;20003;-63
2024/04/15 05:15:08;;;;;;;8.73;2.47;;;;;;;;;;2237325;26;20047;-61
2024/04/15 05:16:10;;;;;;;6.72;2.47;;;;;;;;;;2237941;26;20084;-64
2024/04/15 05:17:11;;;;;;;7.32;2.85;;;;;;;;;;2237717;26;19996;-62
2024/04/15 05:18:13;;;;;;;4.43;2.35;;;;;;;;;;2235805;26;20007;-61
2024/04/15 05:19:14;;;;;;;7.45;3.10;;;;;;;;;;2238401;26;20082;-64
2024/04/15 05:20:15;;;;;;;7.80;2.95;;;;;;;;;;2237190;26;20023;-61
2024/04/15 05:21:18;;;;;;;9.57;3.03;;;;;;;;;;2237976;26;20026;-60
2024/04/15 05:22:20;;;;;;;7.15;2.40;;;;;;;;;;2238465;26;20003;-62
2024/04/15 05:23:21;;;;;;;6.55;2.45;;;;;;;;;;2237796;26;20072;-60
2024/04/15 05:24:24;;;;;;;7.72;2.53;;;;;;;;;;2236091;26;20127;-60
2024/04/15 05:25:25;;;;;;;12.05;2.70;;;;;;;;;;2238139;26;20519;-61
2024/04/15 05:26:26;;;;;;;6.28;2.78;;;;;;;;;;2237594;26;20003;-60
2024/04/15 05:27:28;;;;;;;6.53;2.70;;;;;;;;;;2237852;26;20661;-63
2024/04/15 05:28:29;;;;;;;7.25;2.38;;;;;;;;;;2237901;26;20023;-60
2024/04/15 05:29:30;;;;;;;6.30;2.72;;;;;;;;;;2238045;26;20000;-64
2024/04/15 05:30:32;;;;;;;8.88;2.40;;;;;;;;;;2237881;26;21614;-62
2024/04/15 05:31:33;;;;;;;7.78;2.80;;;;;;;;;;2238063;26;19999;-61
2024/04/15 05:32:34;;;;;;;5.85;2.40;;;;;;;;;;2238457;26;20014;-62
2024/04/15 05:33:36;;;;;;;8.15;2.85;;;;;;;;;;2236539;26;20011;-60
2024/04/15 05:34:42;;;;;;;8.35;3.30;;;;;;;;;;2236581;26;20032;-63
2024/04/15 05:35:44;;;;;;;8.57;2.75;;;;;;;;;;2238250;26;20014;-64
2024/04/15 05:36:46;;;;;;;8.05;2.80;;;;;;;;;;2237312;26;20731;-62
2024/04/15 05:37:47;;;;;;;6.03;3.15;;;;;;;;;;2237374;26;19999;-62
2024/04/15 05:38:48;;;;;;;4.85;2.50;;;;;;;;;;2237809;26;20530;-61
2024/04/15 05:39:50;;;;;;;8.75;2.67;;;;;;;;;;2238397;26;20012;-61
2024/04/15 05:40:51;;;;;;;5.93;2.88;;;;;;;;;;2238001;26;20072;-60
2024/04/15 05:41:53;;;;;;;4.07;2.45;;;;;;;;;;2238056;26;20449;-60
2024/04/15 05:42:55;;;;;;;8.55;2.70;;;;;;;;;;2237977;26;20014;-63
2024/04/15 05:43:57;;;;;;;6.03;2.20;;;;;;;;;;2237120;26;20442;-62
2024/04/15 05:44:58;;;;;;;6.38;2.33;;;;;;;;;;2237717;26;20000;-62
2024/04/15 05:45:59;;;;;;;11.77;2.90;;;;;;;;;;2237773;26;20072;-64
2024/04/15 05:47:01;;;;;;;8.35;2.83;;;;;;;;;;2237572;26;20072;-61
2024/04/15 05:48:02;;;;;;;8.63;2.60;;;;;;;;;;2237612;26;19995;-65
2024/04/15 05:49:04;;;;;;;9.18;2.40;;;;;;;;;;2237021;26;20010;-62
2024/04/15 05:50:05;;;;;;;8.18;2.88;;;;;;;;;;2237853;26;20026;-64
2024/04/15 05:51:07;;;;;;;7.85;2.50;;;;;;;;;;2237709;26;20366;-63
2024/04/15 05:52:08;;;;;;;4.97;2.50;;;;;;;;;;2238163;26;19999;-63
2024/04/15 05:53:09;;;;;;;13.20;2.88;;;;;;;;;;2237558;26;20456;-64
2024/04/15 05:54:11;;;;;;;6.93;2.20;;;;;;;;;;2237301;26;20301;-63
2024/04/15 05:55:12;;;;;;;6.15;2.25;;;;;;;;;;2235313;26;20063;-62
2024/04/15 05:56:13;;;;;;;7.38;2.90;;;;;;;;;;2238169;26;20420;-64
2024/04/15 05:57:15;;;;;;;9.25;2.85;;;;;;;;;;2237529;26;20010;-63
2024/04/15 05:58:16;;;;;;;9.43;3.20;;;;;;;;;;2237946;26;19999;-64
2024/04/15 05:59:17;;;;;;;11.60;3.20;;;;;;;;;;2238185;26;20080;-64
2024/04/15 06:00:19;;;;;;;7.93;2.90;;;;;;;;;;2237741;26;20014;-65
2024/04/15 06:01:21;;;;;;;8.63;2.70;;;;;;;;;;2237301;26;20007;-64
2024/04/15 06:02:23;;;;;;;5.45;2.42;;;;;;;;;;2236482;26;20011;-62
2024/04/15 06:03:24;;;;;;;6.22;2.47;;;;;;;;;;2237694;26;20008;-64
2024/04/15 06:04:26;;;;;;;6.72;2.28;;;;;;;;;;2233694;26;20064;-65
2024/04/15 06:05:27;;;;;;;7.20;2.55;;;;;;;;;;2239007;26;20003;-64
2024/04/15 06:06:28;;;;;;;7.25;2.58;;;;;;;;;;2237903;26;20004;-65
2024/04/15 06:07:31;;;;;;;7.28;2.78;;;;;;;;;;2237183;26;19999;-65
2024/04/15 06:08:32;;;;;;;9.07;2.80;;;;;;;;;;2235346;26;20007;-64
2024/04/15 06:09:36;;;;;;;8.48;3.10;;;;;;;;;;2236460;26;20014;-66